createdAt,value
2023-05-20T00:00:17.657Z,0
2023-05-20T00:01:17.363Z,0
2023-05-20T00:02:18.083Z,0
2023-05-20T00:03:19.553Z,0
2023-05-20T00:04:20.874Z,0
2023-05-20T00:05:19.671Z,0
2023-05-20T00:06:20.708Z,0
2023-05-20T00:07:20.808Z,0
2023-05-20T00:08:21.440Z,0
2023-05-20T00:09:22.402Z,0
2023-05-20T00:10:22.556Z,0
2023-05-20T00:11:23.056Z,0
2023-05-20T00:12:24.056Z,0
2023-05-20T00:13:24.776Z,0
2023-05-20T00:14:25.457Z,0
2023-05-20T00:15:25.806Z,0
2023-05-20T00:16:26.730Z,0
2023-05-20T00:17:27.349Z,0
2023-05-20T00:18:28.553Z,0
2023-05-20T00:19:28.884Z,0
2023-05-20T00:20:28.821Z,0
2023-05-20T00:21:29.592Z,0
2023-05-20T00:22:30.302Z,0
2023-05-20T00:23:30.590Z,0
2023-05-20T00:24:31.293Z,0
2023-05-20T00:25:32.592Z,0
2023-05-20T00:26:32.497Z,0
2023-05-20T00:27:32.708Z,0
2023-05-20T00:28:33.440Z,0
2023-05-20T00:29:33.974Z,0
2023-05-20T00:30:34.960Z,0
2023-05-20T00:31:35.484Z,0
2023-05-20T00:32:36.488Z,0
2023-05-20T00:33:36.032Z,0
2023-05-20T00:34:36.313Z,0
2023-05-20T00:35:37.725Z,0
2023-05-20T00:36:38.259Z,0
2023-05-20T00:37:39.305Z,0
2023-05-20T00:38:40.000Z,0
2023-05-20T00:39:40.289Z,0
2023-05-20T00:40:41.011Z,0
2023-05-20T00:41:41.928Z,0
2023-05-20T00:42:42.612Z,0
2023-05-20T00:43:43.329Z,0
2023-05-20T00:44:44.263Z,0
2023-05-20T00:45:45.893Z,0
2023-05-20T00:46:45.338Z,0
2023-05-20T00:47:46.843Z,0
2023-05-20T00:48:47.359Z,0
2023-05-20T00:49:50.295Z,0
2023-05-20T00:50:49.484Z,0
2023-05-20T00:51:50.455Z,0
2023-05-20T00:52:50.227Z,0
2023-05-20T00:53:50.718Z,0
2023-05-20T00:54:51.439Z,0
2023-05-20T00:55:52.178Z,0
2023-05-20T00:56:52.703Z,0
2023-05-20T00:57:53.329Z,0
2023-05-20T00:58:54.112Z,0
2023-05-20T00:59:56.118Z,0
2023-05-20T01:00:56.103Z,0
2023-05-20T01:01:56.497Z,0
2023-05-20T01:02:56.668Z,0
2023-05-20T01:03:56.760Z,0
2023-05-20T01:04:57.575Z,0
2023-05-20T01:05:58.104Z,0
2023-05-20T01:06:58.691Z,0
2023-05-20T01:07:59.255Z,0
2023-05-20T01:08:59.750Z,0
2023-05-20T01:09:59.929Z,0
2023-05-20T01:11:00.969Z,0
2023-05-20T01:12:01.859Z,0
2023-05-20T01:13:02.132Z,0
2023-05-20T01:14:02.888Z,0
2023-05-20T01:15:02.985Z,0
2023-05-20T01:16:03.836Z,0
2023-05-20T01:17:04.761Z,0
2023-05-20T01:18:05.515Z,0
2023-05-20T01:19:05.785Z,0
2023-05-20T01:20:06.417Z,0
2023-05-20T01:21:07.175Z,0
2023-05-20T01:22:08.104Z,0
2023-05-20T01:23:09.040Z,0
2023-05-20T01:24:09.536Z,0
2023-05-20T01:25:10.239Z,0
2023-05-20T01:26:10.945Z,0
2023-05-20T01:27:11.827Z,0
2023-05-20T01:28:12.238Z,0
2023-05-20T01:29:12.542Z,0
2023-05-20T01:30:13.433Z,0
2023-05-20T01:31:14.359Z,0
2023-05-20T01:32:14.205Z,0
2023-05-20T01:33:14.948Z,0
2023-05-20T01:34:15.787Z,0
2023-05-20T01:35:16.486Z,0
2023-05-20T01:36:17.181Z,0
2023-05-20T01:37:18.409Z,0
2023-05-20T01:38:19.235Z,0
2023-05-20T01:39:19.132Z,0
2023-05-20T01:40:19.436Z,0
2023-05-20T01:41:19.750Z,0
2023-05-20T01:42:20.430Z,0
2023-05-20T01:43:23.184Z,0
2023-05-20T01:44:21.858Z,0
2023-05-20T01:45:22.756Z,0
2023-05-20T01:46:23.965Z,0
2023-05-20T01:47:23.644Z,0
2023-05-20T01:48:23.920Z,0
2023-05-20T01:49:24.367Z,0
2023-05-20T01:50:25.079Z,0
2023-05-20T01:51:25.477Z,0
2023-05-20T01:52:26.692Z,0
2023-05-20T01:53:26.450Z,0
2023-05-20T01:54:27.140Z,0
2023-05-20T01:55:28.159Z,0
2023-05-20T01:56:28.773Z,0
2023-05-20T01:57:29.502Z,0
2023-05-20T01:58:29.755Z,0
2023-05-20T01:59:30.449Z,0
2023-05-20T02:00:30.863Z,0
2023-05-20T02:01:31.957Z,0
2023-05-20T02:02:32.331Z,0
2023-05-20T02:03:32.743Z,0
2023-05-20T02:04:32.662Z,0
2023-05-20T02:05:33.250Z,0
2023-05-20T02:06:33.912Z,0
2023-05-20T02:07:34.638Z,0
2023-05-20T02:08:35.253Z,0
2023-05-20T02:09:36.104Z,0
2023-05-20T02:10:36.788Z,0
2023-05-20T02:11:37.302Z,0
2023-05-20T02:12:38.024Z,0
2023-05-20T02:13:38.302Z,0
2023-05-20T02:14:39.001Z,0
2023-05-20T02:15:40.347Z,0
2023-05-20T02:16:40.284Z,0
2023-05-20T02:17:40.202Z,0
2023-05-20T02:18:40.492Z,0
2023-05-20T02:19:41.165Z,0
2023-05-20T02:20:42.041Z,0
2023-05-20T02:21:42.720Z,0
2023-05-20T02:22:43.678Z,0
2023-05-20T02:23:44.379Z,0
2023-05-20T02:24:45.469Z,0
2023-05-20T02:25:46.258Z,0
2023-05-20T02:26:46.389Z,0
2023-05-20T02:27:46.151Z,0
2023-05-20T02:28:46.170Z,0
2023-05-20T02:29:46.902Z,0
2023-05-20T02:30:47.801Z,0
2023-05-20T02:31:48.311Z,0
2023-05-20T02:32:49.216Z,0
2023-05-20T02:33:49.395Z,0
2023-05-20T02:34:50.189Z,0
2023-05-20T02:35:50.660Z,0
2023-05-20T02:36:51.339Z,0
2023-05-20T02:37:52.277Z,0
2023-05-20T02:38:52.472Z,0
2023-05-20T02:39:53.343Z,0
2023-05-20T02:40:53.620Z,0
2023-05-20T02:41:54.366Z,0
2023-05-20T02:42:55.065Z,0
2023-05-20T02:43:55.733Z,0
2023-05-20T02:44:56.457Z,0
2023-05-20T02:45:58.215Z,0
2023-05-20T02:46:57.994Z,0
2023-05-20T02:47:58.637Z,0
2023-05-20T02:48:58.894Z,0
2023-05-20T02:49:59.559Z,0
2023-05-20T02:51:00.292Z,0
2023-05-20T02:52:00.898Z,0
2023-05-20T02:53:01.471Z,0
2023-05-20T02:54:02.188Z,0
2023-05-20T02:55:03.135Z,0
2023-05-20T02:56:04.044Z,0
2023-05-20T02:57:04.571Z,0
2023-05-20T02:58:05.561Z,0
2023-05-20T02:59:06.133Z,0
2023-05-20T03:00:06.610Z,0
2023-05-20T03:01:07.438Z,0
2023-05-20T03:02:08.406Z,0
2023-05-20T03:03:09.147Z,0
2023-05-20T03:04:10.019Z,0
2023-05-20T03:05:11.018Z,0
2023-05-20T03:06:11.392Z,0
2023-05-20T03:07:12.019Z,0
2023-05-20T03:08:12.801Z,0
2023-05-20T03:09:13.009Z,0
2023-05-20T03:10:13.798Z,0
2023-05-20T03:11:16.119Z,0
2023-05-20T03:12:14.986Z,0
2023-05-20T03:13:16.004Z,4
2023-05-20T03:14:16.681Z,4
2023-05-20T03:15:17.182Z,0
2023-05-20T03:16:18.728Z,0
2023-05-20T03:17:18.533Z,4
2023-05-20T03:18:19.360Z,0
2023-05-20T03:19:20.286Z,4
2023-05-20T03:20:21.043Z,4
2023-05-20T03:21:21.727Z,4
2023-05-20T03:22:22.426Z,8
2023-05-20T03:23:23.564Z,4
2023-05-20T03:24:24.271Z,8
2023-05-20T03:25:25.243Z,4
2023-05-20T03:26:25.812Z,8
2023-05-20T03:27:26.814Z,8
2023-05-20T03:28:26.812Z,12
2023-05-20T03:29:27.203Z,12
2023-05-20T03:30:27.686Z,12
2023-05-20T03:31:28.630Z,12
2023-05-20T03:32:28.593Z,12
2023-05-20T03:33:29.413Z,16
2023-05-20T03:34:30.053Z,20
2023-05-20T03:35:30.745Z,20
2023-05-20T03:36:30.882Z,20
2023-05-20T03:37:31.655Z,24
2023-05-20T03:38:32.617Z,28
2023-05-20T03:39:33.411Z,28
2023-05-20T03:40:34.192Z,32
2023-05-20T03:41:34.904Z,32
2023-05-20T03:42:35.854Z,36
2023-05-20T03:43:36.477Z,36
2023-05-20T03:44:36.792Z,44
2023-05-20T03:45:37.475Z,44
2023-05-20T03:46:38.567Z,48
2023-05-20T03:47:39.495Z,52
2023-05-20T03:48:40.065Z,52
2023-05-20T03:49:40.299Z,56
2023-05-20T03:50:41.591Z,60
2023-05-20T03:51:42.272Z,64
2023-05-20T03:52:43.221Z,68
2023-05-20T03:53:44.183Z,68
2023-05-20T03:54:44.069Z,72
2023-05-20T03:55:44.882Z,72
2023-05-20T03:56:45.375Z,80
2023-05-20T03:57:46.497Z,84
2023-05-20T03:58:46.997Z,84
2023-05-20T03:59:47.588Z,92
2023-05-20T04:00:48.297Z,92
2023-05-20T04:01:49.093Z,96
2023-05-20T04:02:50.002Z,100
2023-05-20T04:03:50.342Z,104
2023-05-20T04:04:50.241Z,108
2023-05-20T04:05:50.960Z,112
2023-05-20T04:06:51.257Z,116
2023-05-20T04:07:52.746Z,116
2023-05-20T04:08:53.262Z,120
2023-05-20T04:09:53.739Z,124
2023-05-20T04:10:54.237Z,124
2023-05-20T04:11:54.710Z,128
2023-05-20T04:12:55.158Z,136
2023-05-20T04:13:56.258Z,136
2023-05-20T04:14:56.997Z,140
2023-05-20T04:15:56.941Z,140
2023-05-20T04:16:57.611Z,148
2023-05-20T04:17:58.680Z,152
2023-05-20T04:18:58.598Z,164
2023-05-20T04:19:59.046Z,176
2023-05-20T04:20:59.928Z,180
2023-05-20T04:22:00.194Z,184
2023-05-20T04:23:00.672Z,184
2023-05-20T04:24:01.614Z,180
2023-05-20T04:25:02.365Z,176
2023-05-20T04:26:03.311Z,176
2023-05-20T04:27:03.811Z,176
2023-05-20T04:28:04.355Z,176
2023-05-20T04:29:04.700Z,184
2023-05-20T04:30:06.133Z,184
2023-05-20T04:31:07.011Z,192
2023-05-20T04:32:07.928Z,192
2023-05-20T04:33:08.266Z,200
2023-05-20T04:34:08.198Z,200
2023-05-20T04:35:08.936Z,208
2023-05-20T04:36:08.831Z,212
2023-05-20T04:37:09.351Z,220
2023-05-20T04:38:10.245Z,224
2023-05-20T04:39:10.960Z,228
2023-05-20T04:40:11.548Z,236
2023-05-20T04:41:12.234Z,252
2023-05-20T04:42:12.540Z,268
2023-05-20T04:43:13.593Z,284
2023-05-20T04:44:14.483Z,292
2023-05-20T04:45:14.818Z,296
2023-05-20T04:46:16.064Z,308
2023-05-20T04:47:15.608Z,320
2023-05-20T04:48:16.950Z,336
2023-05-20T04:49:16.877Z,352
2023-05-20T04:50:17.313Z,368
2023-05-20T04:51:17.803Z,376
2023-05-20T04:52:18.692Z,400
2023-05-20T04:53:19.155Z,424
2023-05-20T04:54:20.126Z,432
2023-05-20T04:55:21.015Z,452
2023-05-20T04:56:21.112Z,460
2023-05-20T04:57:21.876Z,476
2023-05-20T04:58:22.580Z,476
2023-05-20T04:59:23.298Z,480
2023-05-20T05:00:24.061Z,500
2023-05-20T05:01:24.115Z,508
2023-05-20T05:02:24.723Z,524
2023-05-20T05:03:25.557Z,532
2023-05-20T05:04:26.278Z,536
2023-05-20T05:05:26.814Z,540
2023-05-20T05:06:27.328Z,552
2023-05-20T05:07:27.612Z,564
2023-05-20T05:08:28.109Z,568
2023-05-20T05:09:28.845Z,572
2023-05-20T05:11:29.265Z,548
2023-05-20T05:12:30.135Z,540
2023-05-20T05:13:30.650Z,556
2023-05-20T05:14:31.725Z,556
2023-05-20T05:15:32.788Z,552
2023-05-20T05:16:33.652Z,572
2023-05-20T05:17:34.600Z,576
2023-05-20T05:18:34.405Z,616
2023-05-20T05:19:35.168Z,628
2023-05-20T05:20:35.842Z,644
2023-05-20T05:21:36.337Z,652
2023-05-20T05:22:37.067Z,648
2023-05-20T05:23:37.774Z,612
2023-05-20T05:24:38.518Z,624
2023-05-20T05:25:39.637Z,636
2023-05-20T05:26:38.922Z,652
2023-05-20T05:27:39.599Z,680
2023-05-20T05:28:40.285Z,700
2023-05-20T05:29:41.378Z,688
2023-05-20T05:30:41.587Z,692
2023-05-20T05:31:42.406Z,704
2023-05-20T05:32:43.265Z,704
2023-05-20T05:33:43.568Z,700
2023-05-20T05:34:44.081Z,712
2023-05-20T05:35:45.111Z,744
2023-05-20T05:36:45.624Z,808
2023-05-20T05:37:45.904Z,868
2023-05-20T05:38:46.818Z,856
2023-05-20T05:39:47.758Z,820
2023-05-20T05:40:48.468Z,784
2023-05-20T05:41:49.166Z,868
2023-05-20T05:42:50.130Z,872
2023-05-20T05:43:50.636Z,844
2023-05-20T05:44:51.528Z,748
2023-05-20T05:45:52.406Z,704
2023-05-20T05:46:53.101Z,736
2023-05-20T05:47:54.147Z,796
2023-05-20T05:48:54.423Z,768
2023-05-20T05:49:54.742Z,664
2023-05-20T05:50:55.678Z,680
2023-05-20T05:51:55.616Z,656
2023-05-20T05:52:56.526Z,676
2023-05-20T05:53:57.224Z,696
2023-05-20T05:54:58.174Z,712
2023-05-20T05:55:58.679Z,732
2023-05-20T05:56:59.701Z,752
2023-05-20T05:57:59.860Z,788
2023-05-20T05:59:00.557Z,768
2023-05-20T06:00:01.718Z,760
2023-05-20T06:01:02.938Z,772
2023-05-20T06:02:03.387Z,788
2023-05-20T06:03:04.704Z,796
2023-05-20T06:04:04.922Z,804
2023-05-20T06:05:04.385Z,812
2023-05-20T06:06:04.897Z,824
2023-05-20T06:07:05.787Z,828
2023-05-20T06:08:05.931Z,804
2023-05-20T06:09:06.653Z,788
2023-05-20T06:10:07.598Z,776
2023-05-20T06:12:08.704Z,776
2023-05-20T06:13:09.808Z,792
2023-05-20T06:14:10.530Z,832
2023-05-20T06:15:11.061Z,916
2023-05-20T06:16:11.720Z,1020
2023-05-20T06:17:12.812Z,1032
2023-05-20T06:18:13.292Z,1056
2023-05-20T06:19:15.575Z,1060
2023-05-20T06:20:14.381Z,1132
2023-05-20T06:21:14.866Z,1144
2023-05-20T06:22:15.349Z,1196
2023-05-20T06:23:15.934Z,1208
2023-05-20T06:24:16.424Z,1272
2023-05-20T06:25:17.405Z,1296
2023-05-20T06:26:17.900Z,1284
2023-05-20T06:27:18.661Z,1300
2023-05-20T06:28:19.556Z,1312
2023-05-20T06:29:20.287Z,1276
2023-05-20T06:30:21.395Z,1276
2023-05-20T06:31:22.005Z,1280
2023-05-20T06:32:23.424Z,1336
2023-05-20T06:33:23.158Z,1316
2023-05-20T06:34:24.472Z,1336
2023-05-20T06:35:24.965Z,1296
2023-05-20T06:36:25.915Z,1196
2023-05-20T06:37:26.123Z,1168
2023-05-20T06:38:27.020Z,1232
2023-05-20T06:39:27.908Z,1412
2023-05-20T06:40:28.669Z,1452
2023-05-20T06:42:29.029Z,1360
2023-05-20T06:43:29.503Z,1596
2023-05-20T06:44:30.019Z,1624
2023-05-20T06:45:30.530Z,1684
2023-05-20T06:46:31.777Z,1664
2023-05-20T06:47:32.481Z,1868
2023-05-20T06:48:33.255Z,1976
2023-05-20T06:49:33.606Z,1696
2023-05-20T06:50:34.393Z,2036
2023-05-20T06:51:34.811Z,1912
2023-05-20T06:52:35.305Z,1852
2023-05-20T06:53:36.234Z,1760
2023-05-20T06:54:36.929Z,1596
2023-05-20T06:55:38.595Z,1608
2023-05-20T06:56:38.312Z,1540
2023-05-20T06:57:39.041Z,1512
2023-05-20T06:58:39.318Z,1500
2023-05-20T06:59:40.038Z,1308
2023-05-20T07:00:41.158Z,1328
2023-05-20T07:01:40.956Z,1336
2023-05-20T07:02:41.879Z,1404
2023-05-20T07:03:42.853Z,1560
2023-05-20T07:04:43.691Z,1560
2023-05-20T07:05:44.658Z,1668
2023-05-20T07:06:45.373Z,1604
2023-05-20T07:07:46.052Z,1560
2023-05-20T07:08:46.332Z,1680
2023-05-20T07:09:47.426Z,1840
2023-05-20T07:10:48.148Z,1820
2023-05-20T07:11:48.838Z,1748
2023-05-20T07:12:49.332Z,2120
2023-05-20T07:13:50.075Z,1976
2023-05-20T07:14:50.993Z,2824
2023-05-20T07:15:51.937Z,2884
2023-05-20T07:16:52.438Z,3364
2023-05-20T07:17:53.287Z,3684
2023-05-20T07:18:53.204Z,3580
2023-05-20T07:19:53.590Z,3476
2023-05-20T07:20:54.081Z,3396
2023-05-20T07:21:54.911Z,3160
2023-05-20T07:22:55.816Z,3084
2023-05-20T07:23:56.522Z,2436
2023-05-20T07:24:57.002Z,2032
2023-05-20T07:25:57.792Z,2048
2023-05-20T07:26:57.920Z,1836
2023-05-20T07:27:58.416Z,1596
2023-05-20T07:28:58.707Z,1812
2023-05-20T07:29:59.220Z,1964
2023-05-20T07:31:01.931Z,2332
2023-05-20T07:32:00.284Z,2428
2023-05-20T07:33:00.434Z,1868
2023-05-20T07:34:01.092Z,1940
2023-05-20T07:35:01.438Z,1776
2023-05-20T07:36:01.730Z,2220
2023-05-20T07:37:02.485Z,2156
2023-05-20T07:38:02.973Z,1796
2023-05-20T07:39:18.540Z,1736
2023-05-20T07:41:04.938Z,2420
2023-05-20T07:42:05.634Z,2696
2023-05-20T07:43:06.118Z,2780
2023-05-20T07:44:06.614Z,2952
2023-05-20T07:45:07.219Z,3460
2023-05-20T07:46:07.754Z,4036
2023-05-20T07:47:08.154Z,4776
2023-05-20T07:48:09.269Z,5476
2023-05-20T07:49:09.403Z,3172
2023-05-20T07:50:10.129Z,3264
2023-05-20T07:51:10.837Z,3340
2023-05-20T07:52:13.421Z,4300
2023-05-20T07:53:11.878Z,3360
2023-05-20T07:54:12.378Z,4620
2023-05-20T07:55:13.092Z,2240
2023-05-20T07:56:14.044Z,1920
2023-05-20T07:57:13.751Z,1796
2023-05-20T07:58:14.039Z,2072
2023-05-20T07:59:14.948Z,1800
2023-05-20T08:00:15.685Z,1800
2023-05-20T08:01:16.372Z,2120
2023-05-20T08:02:17.192Z,2084
2023-05-20T08:03:19.676Z,2564
2023-05-20T08:04:18.963Z,2360
2023-05-20T08:05:18.884Z,2532
2023-05-20T08:06:19.974Z,3344
2023-05-20T08:07:19.629Z,3504
2023-05-20T08:08:19.901Z,3788
2023-05-20T08:09:20.571Z,4052
2023-05-20T08:10:21.048Z,4512
2023-05-20T08:11:22.016Z,4304
2023-05-20T08:12:22.715Z,4084
2023-05-20T08:13:23.205Z,5200
2023-05-20T08:14:23.980Z,4368
2023-05-20T08:15:24.718Z,2672
2023-05-20T08:16:26.085Z,2016
2023-05-20T08:17:26.305Z,2224
2023-05-20T08:18:25.888Z,3032
2023-05-20T08:19:26.806Z,2716
2023-05-20T08:20:27.422Z,4932
2023-05-20T08:21:28.547Z,4124
2023-05-20T08:22:29.375Z,8284
2023-05-20T08:23:29.888Z,8032
2023-05-20T08:24:30.146Z,7712
2023-05-20T08:25:31.115Z,4104
2023-05-20T08:26:32.323Z,2660
2023-05-20T08:27:32.843Z,3508
2023-05-20T08:28:33.608Z,3300
2023-05-20T08:29:34.303Z,2440
2023-05-20T08:30:35.026Z,2072
2023-05-20T08:31:36.375Z,1880
2023-05-20T08:32:36.668Z,1720
2023-05-20T08:33:37.644Z,1692
2023-05-20T08:34:38.526Z,1792
2023-05-20T08:35:39.934Z,2052
2023-05-20T08:36:39.654Z,2136
2023-05-20T08:37:40.213Z,2428
2023-05-20T08:38:41.191Z,1904
2023-05-20T08:39:41.684Z,1996
2023-05-20T08:40:42.205Z,2844
2023-05-20T08:41:43.542Z,2628
2023-05-20T08:42:44.005Z,2464
2023-05-20T08:43:44.677Z,2440
2023-05-20T08:44:45.354Z,2368
2023-05-20T08:45:46.337Z,2476
2023-05-20T08:46:46.829Z,2560
2023-05-20T08:47:46.742Z,2588
2023-05-20T08:48:47.880Z,2668
2023-05-20T08:49:48.573Z,3108
2023-05-20T08:50:49.279Z,2940
2023-05-20T08:51:49.007Z,3200
2023-05-20T08:52:50.038Z,3576
2023-05-20T08:53:50.726Z,3400
2023-05-20T08:54:51.441Z,5436
2023-05-20T08:55:51.950Z,5952
2023-05-20T08:56:53.228Z,6976
2023-05-20T08:57:53.143Z,7068
2023-05-20T08:58:53.846Z,8276
2023-05-20T08:59:54.138Z,6440
2023-05-20T09:00:55.282Z,3028
2023-05-20T09:01:56.487Z,2812
2023-05-20T09:02:56.200Z,4264
2023-05-20T09:03:56.557Z,4300
2023-05-20T09:04:57.271Z,4396
2023-05-20T09:05:58.065Z,2440
2023-05-20T09:06:58.182Z,2168
2023-05-20T09:07:59.013Z,1756
2023-05-20T09:09:00.162Z,1764
2023-05-20T09:09:59.846Z,1956
2023-05-20T09:11:00.841Z,3280
2023-05-20T09:12:01.746Z,6104
2023-05-20T09:13:02.969Z,4604
2023-05-20T09:14:03.192Z,5552
2023-05-20T09:15:02.953Z,3456
2023-05-20T09:16:03.643Z,2924
2023-05-20T09:17:04.803Z,5180
2023-05-20T09:18:04.687Z,5976
2023-05-20T09:19:05.358Z,7172
2023-05-20T09:20:06.166Z,4468
2023-05-20T09:21:06.735Z,5668
2023-05-20T09:22:07.662Z,8604
2023-05-20T09:23:07.848Z,7608
2023-05-20T09:24:09.321Z,8856
2023-05-20T09:25:10.217Z,4212
2023-05-20T09:26:10.912Z,2924
2023-05-20T09:27:11.441Z,4420
2023-05-20T09:28:12.149Z,3112
2023-05-20T09:29:12.854Z,5244
2023-05-20T09:30:13.956Z,9628
2023-05-20T09:31:14.992Z,9860
2023-05-20T09:32:15.180Z,9876
2023-05-20T09:33:15.607Z,10440
2023-05-20T09:34:16.317Z,11232
2023-05-20T09:35:16.850Z,12164
2023-05-20T09:36:20.648Z,12960
2023-05-20T09:37:17.942Z,9996
2023-05-20T09:38:18.861Z,10408
2023-05-20T09:39:19.345Z,8208
2023-05-20T09:40:20.151Z,9080
2023-05-20T09:41:20.966Z,7896
2023-05-20T09:42:21.730Z,11032
2023-05-20T09:43:21.875Z,9136
2023-05-20T09:44:22.388Z,11952
2023-05-20T09:45:22.709Z,7040
2023-05-20T09:46:23.820Z,4500
2023-05-20T09:47:23.621Z,5624
2023-05-20T09:48:24.639Z,4052
2023-05-20T09:49:24.730Z,5900
2023-05-20T09:50:25.649Z,8060
2023-05-20T09:51:26.557Z,7516
2023-05-20T09:52:27.464Z,5692
2023-05-20T09:53:28.110Z,7104
2023-05-20T09:54:28.994Z,6584
2023-05-20T09:55:29.713Z,5748
2023-05-20T09:56:29.911Z,5204
2023-05-20T09:57:30.673Z,3520
2023-05-20T09:58:31.402Z,5720
2023-05-20T09:59:32.511Z,4480
2023-05-20T10:00:33.406Z,3332
2023-05-20T10:01:34.049Z,2856
2023-05-20T10:02:35.294Z,3556
2023-05-20T10:03:36.028Z,3976
2023-05-20T10:04:35.829Z,6036
2023-05-20T10:05:36.887Z,7564
2023-05-20T10:06:36.954Z,6976
2023-05-20T10:07:52.198Z,7452
2023-05-20T10:09:38.408Z,8580
2023-05-20T10:10:39.541Z,10024
2023-05-20T10:11:40.269Z,7696
2023-05-20T10:12:41.207Z,9884
2023-05-20T10:13:41.696Z,10404
2023-05-20T10:14:42.306Z,11168
2023-05-20T10:15:43.657Z,11172
2023-05-20T10:16:43.633Z,8980
2023-05-20T10:17:44.366Z,6360
2023-05-20T10:18:45.299Z,6656
2023-05-20T10:19:45.865Z,7272
2023-05-20T10:20:46.749Z,7072
2023-05-20T10:21:47.672Z,5756
2023-05-20T10:22:48.153Z,4800
2023-05-20T10:23:49.167Z,4788
2023-05-20T10:24:49.469Z,8672
2023-05-20T10:25:50.022Z,9848
2023-05-20T10:26:50.383Z,10304
2023-05-20T10:27:51.576Z,9012
2023-05-20T10:28:51.395Z,8112
2023-05-20T10:29:52.289Z,8064
2023-05-20T10:30:55.479Z,9464
2023-05-20T10:31:54.005Z,8908
2023-05-20T10:32:55.372Z,9496
2023-05-20T10:33:55.409Z,10708
2023-05-20T10:34:55.690Z,10068
2023-05-20T10:35:56.573Z,9232
2023-05-20T10:36:57.120Z,8708
2023-05-20T10:37:57.807Z,7668
2023-05-20T10:38:58.011Z,8692
2023-05-20T10:39:57.522Z,7548
2023-05-20T10:40:58.294Z,4816
2023-05-20T10:41:58.811Z,8296
2023-05-20T10:42:59.659Z,10756
2023-05-20T10:43:59.715Z,11072
2023-05-20T10:45:00.428Z,10244
2023-05-20T10:46:03.223Z,9948
2023-05-20T10:47:32.695Z,9036
2023-05-20T10:49:04.176Z,9948
2023-05-20T10:50:03.963Z,10740
2023-05-20T10:51:05.138Z,10712
2023-05-20T10:52:06.116Z,10696
2023-05-20T10:53:08.191Z,10248
2023-05-20T10:55:15.119Z,9296
2023-05-20T10:56:16.015Z,8928
2023-05-20T10:57:16.560Z,8600
2023-05-20T10:58:17.422Z,7640
2023-05-20T10:59:18.168Z,7376
2023-05-20T11:00:19.328Z,8420
2023-05-20T11:01:20.550Z,7628
2023-05-20T11:02:20.498Z,4084
2023-05-20T11:03:21.250Z,4376
2023-05-20T11:04:22.354Z,5976
2023-05-20T11:05:22.497Z,7680
2023-05-20T11:06:24.249Z,8048
2023-05-20T11:07:24.083Z,9520
2023-05-20T11:08:35.213Z,9320
2023-05-20T11:09:26.100Z,9096
2023-05-20T11:10:27.022Z,9028
2023-05-20T11:11:27.859Z,8440
2023-05-20T11:12:28.578Z,7840
2023-05-20T11:13:29.936Z,6232
2023-05-20T11:14:29.416Z,6052
2023-05-20T11:15:30.134Z,4760
2023-05-20T11:16:31.308Z,3980
2023-05-20T11:17:32.242Z,4452
2023-05-20T11:18:33.145Z,2852
2023-05-20T11:19:34.658Z,2864
2023-05-20T11:20:34.952Z,3088
2023-05-20T11:21:34.915Z,2732
2023-05-20T11:22:35.640Z,2432
2023-05-20T11:23:36.823Z,2384
2023-05-20T11:24:36.524Z,2480
2023-05-20T11:25:37.047Z,2696
2023-05-20T11:26:38.069Z,3376
2023-05-20T11:27:38.345Z,4296
2023-05-20T11:28:39.209Z,3848
2023-05-20T11:29:39.567Z,3740
2023-05-20T11:30:41.426Z,3324
2023-05-20T11:31:41.275Z,3060
2023-05-20T11:32:42.539Z,3388
2023-05-20T11:33:42.321Z,3580
2023-05-20T11:34:43.165Z,3792
2023-05-20T11:35:43.694Z,3820
2023-05-20T11:36:44.412Z,3500
2023-05-20T11:37:45.124Z,3504
2023-05-20T11:38:45.636Z,4108
2023-05-20T11:39:46.608Z,4148
2023-05-20T11:41:02.570Z,6352
2023-05-20T11:42:47.667Z,7824
2023-05-20T11:43:49.004Z,6224
2023-05-20T11:44:49.153Z,6232
2023-05-20T11:45:49.562Z,6396
2023-05-20T11:46:50.728Z,5896
2023-05-20T11:47:51.545Z,6168
2023-05-20T11:48:52.316Z,7240
2023-05-20T11:49:52.634Z,8484
2023-05-20T11:50:53.182Z,8348
2023-05-20T11:51:53.623Z,8380
2023-05-20T11:52:54.609Z,8280
2023-05-20T11:53:55.515Z,8248
2023-05-20T11:54:55.820Z,8128
2023-05-20T11:55:56.312Z,8044
2023-05-20T11:56:57.145Z,7900
2023-05-20T11:57:57.378Z,7240
2023-05-20T11:58:58.322Z,6860
2023-05-20T11:59:59.041Z,7484
2023-05-20T12:01:28.285Z,7460
2023-05-20T12:03:01.076Z,6628
2023-05-20T12:04:03.009Z,7116
2023-05-20T12:05:03.285Z,6892
2023-05-20T12:06:03.344Z,7128
2023-05-20T12:07:03.853Z,6892
2023-05-20T12:08:06.204Z,5888
2023-05-20T12:09:05.064Z,5760
2023-05-20T12:10:05.661Z,5668
2023-05-20T12:11:06.586Z,6420
2023-05-20T12:12:07.335Z,6652
2023-05-20T12:13:06.875Z,6744
2023-05-20T12:14:07.838Z,6684
2023-05-20T12:15:08.620Z,6368
2023-05-20T12:16:09.082Z,5776
2023-05-20T12:17:09.773Z,4380
2023-05-20T12:18:11.014Z,3408
2023-05-20T12:19:12.035Z,3332
2023-05-20T12:20:12.294Z,2924
2023-05-20T12:21:12.816Z,2544
2023-05-20T12:22:13.199Z,2544
2023-05-20T12:23:14.029Z,2344
2023-05-20T12:24:14.932Z,2336
2023-05-20T12:25:15.158Z,2128
2023-05-20T12:26:16.245Z,2088
2023-05-20T12:27:16.966Z,2084
2023-05-20T12:28:17.928Z,2136
2023-05-20T12:29:18.788Z,2124
2023-05-20T12:30:19.510Z,2096
2023-05-20T12:31:20.600Z,2180
2023-05-20T12:32:20.529Z,2156
2023-05-20T12:33:20.914Z,2152
2023-05-20T12:34:21.538Z,2240
2023-05-20T12:35:22.244Z,2260
2023-05-20T12:36:22.950Z,2324
2023-05-20T12:37:24.065Z,2456
2023-05-20T12:38:24.692Z,2444
2023-05-20T12:39:25.198Z,2488
2023-05-20T12:40:25.381Z,2464
2023-05-20T12:41:26.124Z,2572
2023-05-20T12:42:26.836Z,2540
2023-05-20T12:43:27.344Z,2532
2023-05-20T12:44:27.731Z,2540
2023-05-20T12:45:27.405Z,2808
2023-05-20T12:46:28.602Z,2784
2023-05-20T12:47:29.395Z,2996
2023-05-20T12:48:29.952Z,3016
2023-05-20T12:49:30.682Z,3044
2023-05-20T12:50:31.620Z,3256
2023-05-20T12:51:32.115Z,3232
2023-05-20T12:52:33.755Z,2964
2023-05-20T12:53:32.247Z,2984
2023-05-20T12:54:33.148Z,2928
2023-05-20T12:55:33.639Z,2876
2023-05-20T12:56:34.132Z,2784
2023-05-20T12:57:34.712Z,2660
2023-05-20T12:58:35.211Z,2660
2023-05-20T12:59:36.361Z,2656
2023-05-20T13:00:36.679Z,2692
2023-05-20T13:01:36.884Z,2660
2023-05-20T13:02:39.883Z,2564
2023-05-20T13:03:38.038Z,2356
2023-05-20T13:04:37.994Z,2324
2023-05-20T13:05:38.607Z,2300
2023-05-20T13:06:38.931Z,2144
2023-05-20T13:07:39.709Z,2084
2023-05-20T13:08:40.221Z,2052
2023-05-20T13:09:40.961Z,1992
2023-05-20T13:10:42.358Z,1964
2023-05-20T13:11:42.229Z,1972
2023-05-20T13:12:42.925Z,1960
2023-05-20T13:13:43.678Z,1976
2023-05-20T13:14:44.617Z,1996
2023-05-20T13:15:45.123Z,2008
2023-05-20T13:16:45.675Z,2052
2023-05-20T13:17:46.381Z,2140
2023-05-20T13:18:46.867Z,2128
2023-05-20T13:19:47.619Z,2148
2023-05-20T13:20:48.205Z,2152
2023-05-20T13:21:49.388Z,2108
2023-05-20T13:22:49.666Z,2164
2023-05-20T13:23:50.381Z,2292
2023-05-20T13:24:50.690Z,2292
2023-05-20T13:25:51.526Z,2276
2023-05-20T13:26:52.330Z,2564
2023-05-20T13:27:52.073Z,2828
2023-05-20T13:28:52.850Z,3204
2023-05-20T13:29:54.010Z,3272
2023-05-20T13:30:53.966Z,3176
2023-05-20T13:31:54.351Z,3152
2023-05-20T13:32:56.118Z,3004
2023-05-20T13:33:56.161Z,2948
2023-05-20T13:34:57.088Z,3428
2023-05-20T13:35:57.929Z,3472
2023-05-20T13:36:58.662Z,3316
2023-05-20T13:37:58.753Z,4100
2023-05-20T13:38:59.507Z,4080
2023-05-20T13:40:00.616Z,4468
2023-05-20T13:41:00.897Z,4080
2023-05-20T13:42:01.808Z,4000
2023-05-20T13:43:02.757Z,3812
2023-05-20T13:44:03.287Z,3432
2023-05-20T13:45:04.302Z,3500
2023-05-20T13:46:05.765Z,3604
2023-05-20T13:47:05.806Z,3716
2023-05-20T13:48:06.981Z,3924
2023-05-20T13:49:07.953Z,3440
2023-05-20T13:50:08.906Z,3900
2023-05-20T13:51:09.405Z,3976
2023-05-20T13:52:10.120Z,4000
2023-05-20T13:53:10.848Z,3920
2023-05-20T13:54:11.843Z,3840
2023-05-20T13:55:12.564Z,3368
2023-05-20T13:56:13.271Z,3012
2023-05-20T13:57:14.035Z,3168
2023-05-20T13:58:14.135Z,3000
2023-05-20T13:59:14.660Z,2660
2023-05-20T14:00:15.609Z,2304
2023-05-20T14:01:16.907Z,2460
2023-05-20T14:02:17.498Z,2276